Terminal Aerodrome Forecast
Issued by NWS

Home | Current Version | Previous Version | Text Only | Print | Product List | Glossary On
Versions: 1 2 3 4 5 6 7 8 9 10 11 12 13 14 15 16 17 18
000
FTUS41 KLWX 051742
TAFMTN
TAF
KMTN 051742Z 0518/0618 VRB04KT P6SM SCT020 BKN200
     FM052000 13005KT P6SM BKN050
     FM061100 VRB03KT 5SM -SHRA BKN030
     FM061400 10006KT P6SM BKN040=

USA.gov is the U.S. government's official web portal to all federal, state and local government web resources and services.